M C B H Kaneohe Bay, Hawaii
Current Conditions -  °F | °C
As of 5:20 AM on Wednesday 22 Oct 2014 (Local Time) from PHNG Reporting Station
Scattered Clouds Scattered Clouds  
Wind Chill: 79°   Ceiling: Unl
Heat Index: 82°   Visibility: 10mi
Dew Point: 73°   Wind: 6mph
Humidity: 82%   Direction: 110°ESE
Pressure: 29.97"   Gusts: NA
Location:  21.4527°N, 157.772°W
Report Text: PHNG 221520Z 11005KT 10SM FEW018 SCT029 26/23 A2997 RMK AO2 T02610228 $
Loading
Personal Weather Stations






























Interactive Weather Map
Tropical Storm Tracking
New forecast layout! Learn more

10-Day Weather Forecast

Advertisements
Track Severe Weather on mobile